Time;durP1;ratioP1;P1;durP2;ratioP2;P2;SDS_P1;SDS_P2;PMS_P1;PMS_P2;Temp;Humidity;BMP_temperature;BMP_pressure;BME280_temperature;BME280_humidity;BME280_pressure;Samples;Min_cycle;Max_cycle;Signal;HPM_P1;HPM_P2
2020/12/22 00:02:01;;;;;;;41.63;33.58;;;6.30;99.90;;;;;;5063681;28;20386;-73
2020/12/22 00:04:27;;;;;;;43.90;34.30;;;;;;;;;;5063797;28;20468;-74
2020/12/22 00:06:57;;;;;;;44.65;34.58;;;6.80;99.90;;;;;;5062467;28;20400;-73
2020/12/22 00:09:23;;;;;;;45.80;34.75;;;;;;;;;;5063430;28;20381;-74
2020/12/22 00:11:48;;;;;;;54.50;38.75;;;6.70;99.90;;;;;;5067846;28;20415;-74
2020/12/22 00:14:14;;;;;;;50.43;38.10;;;6.20;99.90;;;;;;5060227;28;20491;-73
2020/12/22 00:16:39;;;;;;;51.77;38.30;;;6.80;99.90;;;;;;5066577;28;20390;-73
2020/12/22 00:19:06;;;;;;;47.50;35.67;;;;;;;;;;5061743;28;20376;-73
2020/12/22 00:21:33;;;;;;;52.60;38.35;;;6.20;99.90;;;;;;5064053;28;20376;-74
2020/12/22 00:23:58;;;;;;;55.10;39.22;;;6.70;99.90;;;;;;5062351;28;20389;-74
2020/12/22 00:26:24;;;;;;;54.30;39.67;;;6.20;99.90;;;;;;5063851;28;20529;-73
2020/12/22 00:28:50;;;;;;;52.97;39.83;;;;;;;;;;5061444;28;20400;-73
2020/12/22 00:31:16;;;;;;;57.25;40.28;;;6.70;99.90;;;;;;5063663;28;20426;-73
2020/12/22 00:33:42;;;;;;;53.92;37.67;;;;;;;;;;5063086;28;20439;-73
2020/12/22 00:36:08;;;;;;;50.05;37.25;;;6.70;99.90;;;;;;5063628;28;20396;-73
2020/12/22 00:38:34;;;;;;;56.10;40.50;;;;;;;;;;5062969;28;20381;-74
2020/12/22 00:41:00;;;;;;;50.57;37.57;;;6.50;99.90;;;;;;5060472;28;20482;-74
2020/12/22 00:43:26;;;;;;;48.72;37.33;;;;;;;;;;5059776;28;20461;-74
2020/12/22 00:45:52;;;;;;;56.97;40.50;;;;;;;;;;5067729;28;20488;-74
2020/12/22 00:48:18;;;;;;;49.42;37.10;;;6.30;99.90;;;;;;5059435;28;20832;-74
2020/12/22 00:50:43;;;;;;;51.23;37.77;;;6.60;99.90;;;;;;5066185;28;21182;-73
2020/12/22 00:53:09;;;;;;;51.23;38.40;;;6.80;99.90;;;;;;5059667;28;20920;-73
2020/12/22 00:55:34;;;;;;;51.83;37.03;;;6.70;99.90;;;;;;5064291;28;20380;-73
2020/12/22 00:58:00;;;;;;;49.70;37.58;;;6.90;99.90;;;;;;5062000;28;20391;-73
2020/12/22 01:00:25;;;;;;;56.15;38.55;;;6.70;99.90;;;;;;5063225;28;20384;-74
2020/12/22 01:02:51;;;;;;;55.20;39.33;;;7.00;99.90;;;;;;5060984;28;20393;-74
2020/12/22 01:05:17;;;;;;;53.63;38.67;;;;;;;;;;5063109;28;20478;-74
2020/12/22 01:07:42;;;;;;;53.63;39.63;;;6.60;99.90;;;;;;5061913;28;20854;-74
2020/12/22 01:10:08;;;;;;;49.25;37.92;;;7.00;99.90;;;;;;5062999;28;20404;-74
2020/12/22 01:12:33;;;;;;;54.28;39.13;;;6.90;99.90;;;;;;5062556;28;20385;-74
2020/12/22 01:14:59;;;;;;;57.90;39.65;;;6.90;99.90;;;;;;5062112;28;20747;-74
2020/12/22 01:17:25;;;;;;;54.50;39.28;;;;;;;;;;5062621;28;20385;-74
2020/12/22 01:19:53;;;;;;;53.78;38.60;;;7.00;99.90;;;;;;5065331;28;20874;-74
2020/12/22 01:22:18;;;;;;;59.75;40.15;;;6.70;99.90;;;;;;5059119;28;20374;-74
2020/12/22 01:24:44;;;;;;;60.57;41.63;;;;;;;;;;5065053;28;20441;-73
2020/12/22 01:27:10;;;;;;;60.38;42.05;;;;;;;;;;5059076;28;20844;-74
2020/12/22 01:29:36;;;;;;;66.25;42.33;;;7.10;99.90;;;;;;5064689;28;20379;-74
2020/12/22 01:32:01;;;;;;;63.53;42.47;;;6.80;99.90;;;;;;5062091;28;20420;-74
2020/12/22 01:34:27;;;;;;;61.73;41.43;;;6.80;99.90;;;;;;5062340;28;20519;-73
2020/12/22 01:36:53;;;;;;;63.23;41.97;;;6.80;99.90;;;;;;5060653;28;20520;-73
2020/12/22 01:39:18;;;;;;;65.65;42.45;;;6.90;99.90;;;;;;5062588;28;20379;-73
2020/12/22 01:41:44;;;;;;;59.50;39.70;;;7.00;99.90;;;;;;5054390;28;20415;-73
2020/12/22 01:44:14;;;;;;;58.88;40.25;;;;;;;;;;5062230;28;20392;-74
2020/12/22 01:46:40;;;;;;;57.97;39.45;;;;;;;;;;5061704;28;20385;-73
2020/12/22 01:49:28;;;;;;;73.78;43.78;;;6.90;99.90;;;;;;5061936;28;20376;-73
2020/12/22 01:51:58;;;;;;;73.05;43.35;;;7.10;99.90;;;;;;5060422;28;20419;-73
2020/12/22 01:54:25;;;;;;;78.20;44.55;;;7.10;99.90;;;;;;5061694;28;20398;-73
2020/12/22 01:56:51;;;;;;;76.20;43.60;;;6.90;99.90;;;;;;5060251;28;20396;-73
2020/12/22 01:59:17;;;;;;;61.55;40.25;;;7.10;99.90;;;;;;5064927;28;20435;-73
2020/12/22 02:01:43;;;;;;;64.25;41.08;;;;;;;;;;5059036;28;20385;-73
2020/12/22 02:04:10;;;;;;;61.17;38.67;;;7.10;99.90;;;;;;5064684;28;20439;-73
2020/12/22 02:06:36;;;;;;;63.67;39.80;;;7.00;99.90;;;;;;5058538;28;20420;-73
2020/12/22 02:09:05;;;;;;;66.78;41.40;;;6.90;99.90;;;;;;5064123;28;20420;-74
2020/12/22 02:11:33;;;;;;;63.60;39.63;;;7.10;99.90;;;;;;5065006;28;20408;-73
2020/12/22 02:14:00;;;;;;;57.00;36.78;;;6.90;99.90;;;;;;5059052;28;20396;-73
2020/12/22 02:16:26;;;;;;;69.78;41.22;;;;;;;;;;5063301;28;20375;-73
2020/12/22 02:18:53;;;;;;;75.60;43.15;;;6.90;99.90;;;;;;5060753;28;20392;-74
2020/12/22 02:21:19;;;;;;;74.45;42.65;;;6.90;99.90;;;;;;5050259;28;20388;-74
2020/12/22 02:23:49;;;;;;;64.13;40.60;;;7.00;99.90;;;;;;5050038;28;20385;-75
2020/12/22 02:26:22;;;;;;;67.55;40.90;;;6.70;99.90;;;;;;5048884;28;20397;-74
2020/12/22 02:28:49;;;;;;;61.08;39.15;;;7.20;99.90;;;;;;5050265;28;20381;-74
2020/12/22 02:31:15;;;;;;;58.00;37.78;;;;;;;;;;5050119;28;20405;-74
2020/12/22 02:33:41;;;;;;;58.47;37.85;;;7.20;99.90;;;;;;5049881;28;20381;-73
2020/12/22 02:36:08;;;;;;;60.30;37.90;;;7.00;99.90;;;;;;5050098;28;20381;-74
2020/12/22 02:38:34;;;;;;;72.70;41.67;;;7.10;99.90;;;;;;5050125;28;20416;-74
2020/12/22 02:40:59;;;;;;;62.47;38.15;;;7.20;99.90;;;;;;5050118;28;20907;-74
2020/12/22 02:43:25;;;;;;;64.20;38.97;;;;;;;;;;5049855;28;20454;-73
2020/12/22 02:45:51;;;;;;;68.75;41.67;;;;;;;;;;5050123;28;20423;-73
2020/12/22 02:48:17;;;;;;;75.57;43.20;;;7.00;99.90;;;;;;5049937;28;20393;-73
2020/12/22 02:50:42;;;;;;;68.07;40.57;;;7.10;99.90;;;;;;5050097;28;20410;-73
2020/12/22 02:53:08;;;;;;;67.90;39.55;;;7.10;99.90;;;;;;5049806;28;20400;-73
2020/12/22 02:55:34;;;;;;;66.88;40.00;;;;;;;;;;5049952;28;20460;-73
2020/12/22 02:58:00;;;;;;;62.63;38.85;;;;;;;;;;5049923;28;20415;-73
2020/12/22 03:00:26;;;;;;;60.97;37.25;;;7.10;99.90;;;;;;5049937;28;20384;-72
2020/12/22 03:02:52;;;;;;;54.15;36.08;;;7.30;99.90;;;;;;5049651;28;20464;-73
2020/12/22 03:05:18;;;;;;;58.60;36.30;;;7.20;99.90;;;;;;5049889;28;20464;-73
2020/12/22 03:07:44;;;;;;;65.47;37.92;;;7.00;99.90;;;;;;5049772;28;20425;-72
2020/12/22 03:10:12;;;;;;;58.00;36.63;;;7.20;99.90;;;;;;5049844;28;20392;-72
2020/12/22 03:12:38;;;;;;;65.90;37.87;;;;;;;;;;5049630;28;20407;-73
2020/12/22 03:15:05;;;;;;;68.82;37.60;;;7.50;99.90;;;;;;5049721;28;20978;-74
2020/12/22 03:17:31;;;;;;;64.82;38.47;;;7.50;99.90;;;;;;5049663;28;20381;-73
2020/12/22 03:19:56;;;;;;;59.42;36.28;;;7.30;99.90;;;;;;5049795;28;20411;-74
2020/12/22 03:22:22;;;;;;;60.73;36.60;;;7.30;99.90;;;;;;5049442;28;20381;-74
2020/12/22 03:24:48;;;;;;;58.67;34.80;;;7.40;99.90;;;;;;5049696;28;20392;-75
2020/12/22 03:27:13;;;;;;;55.70;33.43;;;7.30;99.90;;;;;;5049740;28;20388;-74
2020/12/22 03:29:39;;;;;;;63.43;35.97;;;;;;;;;;5050063;28;20424;-74
2020/12/22 03:32:05;;;;;;;59.80;34.80;;;7.60;99.90;;;;;;5052923;28;20903;-73
2020/12/22 03:34:30;;;;;;;53.77;32.20;;;7.30;99.90;;;;;;5053221;28;20435;-73
2020/12/22 03:36:56;;;;;;;57.27;33.97;;;;;;;;;;5053041;28;20378;-73
2020/12/22 03:39:22;;;;;;;52.45;32.58;;;7.90;99.90;;;;;;5053214;28;20377;-74
2020/12/22 03:41:47;;;;;;;52.88;32.90;;;7.60;99.90;;;;;;5052958;28;20377;-74
2020/12/22 03:44:13;;;;;;;49.13;30.87;;;7.40;99.90;;;;;;5053009;28;20385;-73
2020/12/22 03:46:40;;;;;;;51.27;30.83;;;7.40;99.90;;;;;;5052814;28;20390;-74
2020/12/22 03:49:05;;;;;;;49.92;30.40;;;7.70;99.90;;;;;;5052981;28;20492;-74
2020/12/22 03:51:31;;;;;;;49.15;30.10;;;7.50;99.90;;;;;;5052806;28;20795;-74
2020/12/22 03:53:57;;;;;;;49.15;30.17;;;;;;;;;;5052676;28;20478;-74
2020/12/22 03:56:23;;;;;;;45.65;30.08;;;;;;;;;;5052759;28;20389;-74
2020/12/22 03:58:49;;;;;;;46.25;28.98;;;;;;;;;;5052816;28;20924;-74
2020/12/22 04:01:15;;;;;;;42.20;27.15;;;7.50;99.90;;;;;;5052766;28;20457;-74
2020/12/22 04:03:40;;;;;;;48.30;29.38;;;8.00;99.90;;;;;;5052593;28;20385;-72
2020/12/22 04:06:06;;;;;;;39.25;26.60;;;7.60;99.90;;;;;;5052591;28;20397;-73
2020/12/22 04:08:31;;;;;;;40.40;26.77;;;7.70;99.90;;;;;;5052607;28;20389;-73
2020/12/22 04:10:57;;;;;;;47.88;28.85;;;8.00;99.90;;;;;;5052510;28;20416;-73
2020/12/22 04:13:23;;;;;;;45.17;28.07;;;7.70;99.90;;;;;;5052369;28;20396;-73
2020/12/22 04:15:48;;;;;;;42.92;26.65;;;7.10;99.90;;;;;;5052220;28;20795;-73
2020/12/22 04:18:14;;;;;;;43.57;26.70;;;7.90;99.90;;;;;;5052539;28;20545;-74
2020/12/22 04:20:40;;;;;;;48.67;28.33;;;7.60;99.90;;;;;;5052309;28;20420;-74
2020/12/22 04:23:05;;;;;;;46.75;27.23;;;8.20;99.90;;;;;;5052160;28;20416;-74
2020/12/22 04:25:31;;;;;;;51.83;29.37;;;7.70;99.90;;;;;;5052160;28;20404;-74
2020/12/22 04:27:56;;;;;;;48.33;28.37;;;8.40;99.90;;;;;;5052245;28;20388;-74
2020/12/22 04:30:22;;;;;;;49.17;28.87;;;7.80;99.90;;;;;;5054438;28;20397;-74
2020/12/22 04:32:47;;;;;;;49.23;28.87;;;8.20;99.90;;;;;;5071947;28;20800;-74
2020/12/22 04:35:13;;;;;;;47.93;26.93;;;8.10;99.90;;;;;;5068016;28;20385;-74
2020/12/22 04:37:39;;;;;;;46.42;26.50;;;8.30;99.90;;;;;;5052008;28;20389;-74
2020/12/22 04:40:04;;;;;;;44.65;25.77;;;7.70;99.90;;;;;;5051995;28;20381;-74
2020/12/22 04:42:31;;;;;;;45.30;26.10;;;;;;;;;;5051451;28;20468;-74
2020/12/22 04:44:57;;;;;;;52.53;27.67;;;;;;;;;;5052141;28;20713;-74
2020/12/22 04:47:25;;;;;;;50.55;27.83;;;7.70;99.90;;;;;;5051989;28;20385;-73
2020/12/22 04:49:53;;;;;;;54.28;28.35;;;8.10;99.90;;;;;;5051899;28;20871;-74
2020/12/22 04:52:21;;;;;;;53.65;28.70;;;7.80;99.90;;;;;;5051483;28;20487;-74
2020/12/22 04:54:47;;;;;;;53.05;28.40;;;8.00;99.90;;;;;;5051725;28;20382;-75
2020/12/22 04:57:15;;;;;;;60.83;30.52;;;8.10;99.90;;;;;;5051712;28;20392;-74
2020/12/22 04:59:43;;;;;;;52.90;27.77;;;;;;;;;;5051475;28;20760;-74
2020/12/22 05:02:10;;;;;;;53.45;27.95;;;;;;;;;;5051485;28;20386;-74
2020/12/22 05:04:38;;;;;;;60.78;29.60;;;8.10;99.90;;;;;;5051549;28;20866;-74
2020/12/22 05:07:07;;;;;;;66.30;30.20;;;8.00;99.90;;;;;;5051457;28;20382;-75
2020/12/22 05:09:33;;;;;;;61.38;29.45;;;8.10;99.90;;;;;;5051461;28;20412;-74
2020/12/22 05:11:59;;;;;;;50.00;25.63;;;8.30;99.90;;;;;;5051236;28;20405;-73
2020/12/22 05:14:27;;;;;;;62.70;29.87;;;8.10;99.90;;;;;;5051142;28;20570;-74
2020/12/22 05:16:55;;;;;;;57.38;28.13;;;8.10;99.90;;;;;;5051309;28;20392;-74
2020/12/22 05:19:21;;;;;;;58.78;27.27;;;8.00;99.90;;;;;;5051207;28;20914;-74
2020/12/22 05:21:50;;;;;;;57.03;27.40;;;8.20;99.90;;;;;;5051249;28;20389;-75
2020/12/22 05:24:16;;;;;;;50.65;24.90;;;8.00;99.90;;;;;;5050964;28;20382;-75
2020/12/22 05:26:43;;;;;;;60.63;27.83;;;8.00;99.90;;;;;;5051017;28;20393;-74
2020/12/22 05:29:14;;;;;;;48.67;24.02;;;8.10;99.90;;;;;;5051104;28;20439;-74
2020/12/22 05:31:44;;;;;;;39.20;21.45;;;;;;;;;;5051039;28;20420;-74
2020/12/22 05:34:11;;;;;;;39.63;21.17;;;8.50;99.90;;;;;;5050760;28;20748;-74
2020/12/22 05:36:42;;;;;;;39.22;21.13;;;8.40;99.90;;;;;;5050742;28;20389;-74
2020/12/22 05:39:09;;;;;;;33.55;19.77;;;8.30;99.90;;;;;;5050960;28;20408;-74
2020/12/22 05:41:35;;;;;;;28.97;17.57;;;8.40;99.90;;;;;;5050754;28;20400;-74
2020/12/22 05:44:02;;;;;;;28.98;17.98;;;;;;;;;;5050714;28;20803;-74
2020/12/22 05:46:33;;;;;;;29.65;17.85;;;8.40;99.90;;;;;;5050765;28;20431;-73
2020/12/22 05:49:00;;;;;;;31.75;18.25;;;;;;;;;;5050733;28;20385;-73
2020/12/22 05:51:26;;;;;;;39.08;20.40;;;8.50;99.90;;;;;;5050602;28;20409;-73
2020/12/22 05:53:59;;;;;;;30.48;17.65;;;8.80;99.90;;;;;;5049969;28;20483;-73
2020/12/22 05:56:24;;;;;;;28.05;16.70;;;8.70;99.90;;;;;;5050593;28;20385;-73
2020/12/22 05:58:50;;;;;;;59.87;40.27;;;;;;;;;;5050447;28;20405;-73
2020/12/22 06:01:28;;;;;;;34.20;23.47;;;;;;;;;;5049968;28;20392;-73
2020/12/22 06:03:55;;;;;;;27.55;16.55;;;8.50;99.90;;;;;;5047821;28;20458;-73
2020/12/22 06:06:22;;;;;;;25.77;16.23;;;8.50;99.90;;;;;;5069100;28;20738;-73
2020/12/22 06:08:49;;;;;;;59.70;38.70;;;8.80;99.90;;;;;;5070533;28;20391;-73
2020/12/22 06:11:15;;;;;;;23.83;16.55;;;8.60;99.90;;;;;;5070297;28;20434;-73
2020/12/22 06:13:41;;;;;;;44.97;30.95;;;;;;;;;;5070052;28;20463;-73
2020/12/22 06:16:15;;;;;;;44.50;28.10;;;8.60;99.90;;;;;;5070288;28;20765;-73
2020/12/22 06:18:42;;;;;;;30.58;19.20;;;8.50;99.90;;;;;;5070231;28;20925;-73
2020/12/22 06:21:08;;;;;;;34.30;23.50;;;8.60;99.90;;;;;;5070443;28;20391;-73
2020/12/22 06:23:34;;;;;;;30.73;21.20;;;9.10;99.90;;;;;;5070100;28;20471;-73
2020/12/22 06:26:03;;;;;;;16.77;11.20;;;8.60;99.90;;;;;;5070471;28;20470;-73
2020/12/22 06:28:30;;;;;;;15.60;10.82;;;9.20;99.90;;;;;;5070406;28;20391;-73
2020/12/22 06:30:56;;;;;;;14.23;9.75;;;9.20;99.90;;;;;;5070409;28;20404;-73
2020/12/22 06:33:26;;;;;;;14.30;9.57;;;8.70;99.90;;;;;;5070141;28;20460;-73
2020/12/22 06:36:10;;;;;;;15.82;10.55;;;9.20;99.90;;;;;;5060840;28;20386;-73
2020/12/22 06:38:53;;;;;;;13.18;9.63;;;8.90;99.90;;;;;;5050226;28;20388;-73
2020/12/22 06:41:35;;;;;;;13.13;10.57;;;9.20;99.90;;;;;;5050206;28;20392;-73
2020/12/22 06:44:27;;;;;;;11.57;8.57;;;9.20;99.90;;;;;;5038372;28;20374;-73
2020/12/22 06:46:56;;;;;;;15.07;11.30;;;9.40;99.90;;;;;;5037183;28;20901;-73
2020/12/22 06:49:59;;;;;;;12.88;10.23;;;8.90;99.90;;;;;;5050213;28;20752;-73
2020/12/22 06:52:37;;;;;;;12.13;7.70;;;9.50;99.90;;;;;;5047489;28;20455;-73
2020/12/22 06:55:12;;;;;;;9.18;7.00;;;;;;;;;;5037358;28;20389;-73
2020/12/22 06:57:43;;;;;;;10.60;6.90;;;9.30;99.90;;;;;;5049911;28;20478;-73
2020/12/22 07:00:29;;;;;;;9.30;6.25;;;9.10;99.90;;;;;;5050168;28;20771;-73
2020/12/22 07:03:09;;;;;;;6.00;4.95;;;9.60;99.90;;;;;;5049794;28;20592;-73
2020/12/22 07:05:45;;;;;;;5.43;4.63;;;9.50;99.90;;;;;;5052059;28;20415;-73
2020/12/22 07:08:12;;;;;;;5.00;4.28;;;9.60;99.90;;;;;;5053927;28;20400;-73
2020/12/22 07:10:41;;;;;;;7.00;4.60;;;9.60;99.90;;;;;;5053564;28;20558;-72
2020/12/22 07:13:09;;;;;;;5.43;3.55;;;;;;;;;;5053640;28;20381;-73
2020/12/22 07:15:36;;;;;;;6.90;5.32;;;9.40;99.90;;;;;;5053596;28;20425;-74
2020/12/22 07:18:10;;;;;;;20.25;18.20;;;9.10;99.90;;;;;;5053607;28;20417;-73
2020/12/22 07:20:38;;;;;;;11.13;9.02;;;9.70;99.90;;;;;;5053727;28;20388;-73
2020/12/22 07:23:04;;;;;;;9.40;8.07;;;;;;;;;;5053560;28;20393;-73
2020/12/22 07:25:30;;;;;;;112.95;91.53;;;;;;;;;;5053385;28;20931;-74
2020/12/22 07:27:56;;;;;;;63.72;56.83;;;;;;;;;;5053427;28;20385;-74
2020/12/22 07:30:22;;;;;;;12.52;11.25;;;;;;;;;;5053549;28;20838;-73
2020/12/22 07:32:52;;;;;;;5.00;3.70;;;9.20;99.90;;;;;;5053183;28;20887;-73
2020/12/22 07:35:18;;;;;;;4.47;4.07;;;9.80;99.90;;;;;;5053256;28;20377;-74
2020/12/22 07:37:44;;;;;;;6.30;5.20;;;9.30;99.90;;;;;;5053208;28;20389;-73
2020/12/22 07:40:09;;;;;;;7.05;6.35;;;9.80;99.90;;;;;;5053161;28;20377;-73
2020/12/22 07:42:35;;;;;;;6.25;5.65;;;9.20;99.90;;;;;;5052879;28;20867;-74
2020/12/22 07:45:07;;;;;;;5.05;4.50;;;;;;;;;;5055575;28;20384;-73
2020/12/22 07:47:34;;;;;;;7.80;7.00;;;;;;;;;;5063185;28;20467;-73
2020/12/22 07:50:16;;;;;;;14.25;13.15;;;9.60;99.90;;;;;;5054818;28;20908;-73
2020/12/22 07:52:42;;;;;;;7.55;6.80;;;9.90;99.90;;;;;;5050210;28;20389;-73
2020/12/22 07:55:09;;;;;;;3.60;3.05;;;9.70;99.90;;;;;;5051016;28;20374;-73
2020/12/22 07:57:39;;;;;;;4.90;3.55;;;10.00;99.90;;;;;;5051602;28;20381;-73
2020/12/22 08:00:08;;;;;;;2.63;2.42;;;10.00;99.90;;;;;;5053025;28;20720;-73
2020/12/22 08:02:35;;;;;;;2.80;2.38;;;9.40;99.90;;;;;;5052257;28;20395;-73
2020/12/22 08:05:08;;;;;;;4.47;2.95;;;;;;;;;;5052041;28;20425;-73
2020/12/22 08:07:34;;;;;;;4.95;3.35;;;;;;;;;;5052239;28;20401;-72
2020/12/22 08:10:07;;;;;;;4.03;3.63;;;;;;;;;;5052348;28;20797;-73
2020/12/22 08:12:33;;;;;;;5.00;3.20;;;9.80;99.90;;;;;;5052162;28;20443;-72
2020/12/22 08:14:59;;;;;;;2.87;2.20;;;9.80;99.90;;;;;;5052126;28;20899;-73
2020/12/22 08:17:27;;;;;;;3.70;2.30;;;9.80;99.90;;;;;;5051411;28;20461;-73
2020/12/22 08:19:53;;;;;;;3.17;2.88;;;;;;;;;;5052238;28;20386;-73
2020/12/22 08:22:19;;;;;;;2.00;1.80;;;9.50;99.90;;;;;;5051952;28;20385;-73
2020/12/22 08:24:45;;;;;;;1.90;1.30;;;;;;;;;;5052100;28;20893;-73
2020/12/22 08:27:12;;;;;;;1.40;1.15;;;10.10;99.90;;;;;;5051942;28;20443;-73
2020/12/22 08:29:39;;;;;;;0.90;0.90;;;;;;;;;;5052054;28;20396;-73
2020/12/22 08:32:05;;;;;;;2.00;1.80;;;10.20;99.90;;;;;;5051502;28;20458;-72
2020/12/22 08:34:31;;;;;;;0.80;0.80;;;9.80;99.90;;;;;;5052016;28;20476;-73
2020/12/22 08:36:57;;;;;;;1.88;0.80;;;10.40;99.90;;;;;;5051959;28;20394;-73
2020/12/22 08:39:27;;;;;;;0.82;0.73;;;10.30;99.90;;;;;;5051914;28;20381;-73
2020/12/22 08:41:57;;;;;;;1.30;0.65;;;10.40;99.90;;;;;;5051630;28;20382;-73
2020/12/22 08:44:25;;;;;;;1.33;0.65;;;10.40;99.90;;;;;;5051648;28;20374;-73
2020/12/22 08:46:52;;;;;;;1.77;0.90;;;10.30;99.90;;;;;;5051518;28;20389;-73
2020/12/22 08:49:21;;;;;;;0.75;0.70;;;10.60;99.90;;;;;;5051779;28;20385;-73
2020/12/22 08:51:47;;;;;;;1.13;0.80;;;;;;;;;;5051566;28;20412;-73
2020/12/22 08:54:13;;;;;;;3.10;1.00;;;10.30;99.90;;;;;;5051440;28;20373;-72
2020/12/22 08:56:39;;;;;;;1.08;0.60;;;;;;;;;;5051519;28;20464;-73
2020/12/22 08:59:07;;;;;;;1.63;0.70;;;10.60;99.90;;;;;;5051488;28;20377;-75
2020/12/22 09:01:43;;;;;;;0.90;0.50;;;10.20;99.90;;;;;;5051684;28;20737;-74
2020/12/22 09:04:10;;;;;;;0.80;0.60;;;;;;;;;;5051262;28;20396;-74
2020/12/22 09:06:35;;;;;;;0.80;0.60;;;10.60;99.90;;;;;;5051455;28;20468;-74
2020/12/22 09:09:03;;;;;;;2.40;0.80;;;10.70;99.90;;;;;;5051264;28;20536;-74
2020/12/22 09:11:29;;;;;;;0.77;0.50;;;10.90;99.90;;;;;;5051139;28;20535;-74
2020/12/22 09:14:08;;;;;;;0.50;0.50;;;10.70;99.90;;;;;;5050875;28;20496;-74
2020/12/22 09:16:49;;;;;;;0.70;0.60;;;10.10;99.90;;;;;;5051276;28;20405;-74
2020/12/22 09:19:42;;;;;;;2.03;0.70;;;10.60;99.90;;;;;;5051137;28;20385;-74
2020/12/22 09:22:09;;;;;;;1.33;0.52;;;;;;;;;;5050012;28;20487;-74
2020/12/22 09:24:36;;;;;;;1.23;0.50;;;;;;;;;;5051171;28;20912;-74
2020/12/22 09:27:06;;;;;;;0.90;0.50;;;;;;;;;;5050610;28;20389;-74
2020/12/22 09:29:34;;;;;;;1.38;0.80;;;10.60;99.90;;;;;;5050842;28;20381;-74
2020/12/22 09:32:00;;;;;;;0.73;0.50;;;10.60;99.90;;;;;;5050731;28;20410;-74
2020/12/22 09:34:27;;;;;;;0.80;0.60;;;11.10;99.90;;;;;;5050725;28;20381;-74
2020/12/22 09:36:58;;;;;;;2.67;1.00;;;10.40;99.90;;;;;;5050751;28;20400;-74
2020/12/22 09:39:25;;;;;;;0.88;0.60;;;11.00;99.90;;;;;;5050928;28;20414;-74
2020/12/22 09:41:52;;;;;;;1.30;0.80;;;;;;;;;;5050659;28;20808;-74
2020/12/22 09:44:18;;;;;;;0.80;0.43;;;11.00;99.90;;;;;;5050611;28;20416;-74
2020/12/22 09:46:51;;;;;;;0.90;0.70;;;10.80;99.90;;;;;;5054084;28;20419;-74
2020/12/22 09:49:18;;;;;;;0.80;0.57;;;;;;;;;;5070600;28;20385;-74
2020/12/22 09:51:44;;;;;;;1.85;0.60;;;;;;;;;;5070408;28;20408;-74
2020/12/22 09:54:11;;;;;;;1.00;0.90;;;;;;;;;;5070377;28;20384;-74
2020/12/22 09:56:37;;;;;;;1.88;0.90;;;10.30;99.90;;;;;;5070436;28;20376;-74
2020/12/22 09:59:03;;;;;;;1.27;0.50;;;10.70;99.90;;;;;;5070538;28;20433;-74
2020/12/22 10:01:29;;;;;;;1.43;0.60;;;;;;;;;;5070172;28;20541;-74
2020/12/22 10:03:55;;;;;;;0.73;0.65;;;10.60;99.90;;;;;;5070089;28;20418;-74
2020/12/22 10:06:22;;;;;;;1.50;1.40;;;10.80;99.90;;;;;;5070454;28;20418;-74
2020/12/22 10:08:49;;;;;;;1.80;1.40;;;10.70;99.90;;;;;;5070384;28;20380;-74
2020/12/22 10:11:16;;;;;;;3.13;2.45;;;10.70;99.90;;;;;;5070252;28;21014;-74
2020/12/22 10:13:41;;;;;;;4.53;3.63;;;10.70;99.90;;;;;;5069889;28;20913;-75
2020/12/22 10:16:13;;;;;;;1.77;1.40;;;10.70;99.90;;;;;;5069938;28;20499;-74
2020/12/22 10:18:39;;;;;;;1.85;0.90;;;;;;;;;;5070558;28;20787;-74
2020/12/22 10:21:10;;;;;;;3.58;1.98;;;10.80;99.90;;;;;;5070113;28;20387;-74
2020/12/22 10:23:37;;;;;;;1.40;1.20;;;;;;;;;;5069960;28;20900;-74
2020/12/22 10:26:05;;;;;;;1.17;0.68;;;10.80;99.90;;;;;;5070205;28;20410;-74
2020/12/22 10:28:32;;;;;;;1.10;0.80;;;11.10;99.90;;;;;;5070191;28;20384;-74
2020/12/22 10:30:58;;;;;;;1.35;0.80;;;10.90;99.90;;;;;;5070137;28;20399;-74
2020/12/22 10:33:24;;;;;;;1.60;0.80;;;11.10;99.90;;;;;;5069871;28;20421;-74
2020/12/22 10:35:49;;;;;;;1.53;0.80;;;10.90;99.90;;;;;;5060990;28;20395;-74
2020/12/22 10:38:15;;;;;;;2.13;1.67;;;;;;;;;;5050077;28;20443;-74
2020/12/22 10:40:41;;;;;;;2.00;1.80;;;11.10;99.90;;;;;;5054140;28;20384;-74
2020/12/22 10:43:06;;;;;;;1.00;0.80;;;11.00;99.90;;;;;;5053846;28;20385;-74
2020/12/22 10:45:33;;;;;;;1.10;0.70;;;11.10;99.90;;;;;;5054069;28;20464;-74
2020/12/22 10:48:00;;;;;;;1.23;0.80;;;;;;;;;;5054122;28;20393;-74
2020/12/22 10:50:26;;;;;;;1.63;0.82;;;11.10;99.90;;;;;;5059613;28;20379;-74
2020/12/22 10:52:52;;;;;;;2.60;0.77;;;;;;;;;;5063738;28;20444;-74
2020/12/22 10:55:18;;;;;;;0.82;0.80;;;;;;;;;;5058752;28;20895;-74
2020/12/22 10:57:44;;;;;;;0.70;0.60;;;11.10;99.90;;;;;;5063912;28;20486;-74
2020/12/22 11:00:09;;;;;;;0.63;0.52;;;11.30;99.90;;;;;;5065411;28;20466;-73
2020/12/22 11:02:35;;;;;;;0.63;0.60;;;11.20;99.90;;;;;;5063502;28;20487;-73
2020/12/22 11:05:01;;;;;;;1.55;0.60;;;11.40;99.90;;;;;;5064766;28;20415;-73
2020/12/22 11:07:43;;;;;;;1.00;0.60;;;;;;;;;;5064125;28;20466;-73
2020/12/22 11:10:09;;;;;;;1.00;0.60;;;11.40;99.90;;;;;;5053434;28;20788;-73
2020/12/22 11:12:35;;;;;;;1.30;0.80;;;11.30;99.90;;;;;;5064421;28;20398;-73
2020/12/22 11:15:00;;;;;;;1.43;0.73;;;;;;;;;;5064054;28;20414;-73
2020/12/22 11:17:26;;;;;;;1.02;0.80;;;;;;;;;;5064620;28;20385;-73
2020/12/22 11:19:53;;;;;;;1.30;1.10;;;11.40;99.90;;;;;;5069526;28;20428;-73
2020/12/22 11:22:19;;;;;;;1.63;1.33;;;;;;;;;;5061282;28;20868;-73
2020/12/22 11:24:45;;;;;;;1.80;1.30;;;;;;;;;;5068269;28;20387;-73
2020/12/22 11:27:10;;;;;;;2.05;1.40;;;11.40;99.90;;;;;;5061087;28;20404;-72
2020/12/22 11:29:36;;;;;;;1.13;0.90;;;11.60;99.90;;;;;;5066788;28;20410;-72
2020/12/22 11:32:02;;;;;;;1.50;0.93;;;11.60;99.90;;;;;;5064159;28;20403;-73
2020/12/22 11:34:27;;;;;;;0.95;0.80;;;11.60;99.90;;;;;;5064641;28;20394;-73
2020/12/22 11:36:54;;;;;;;1.15;0.75;;;11.60;99.90;;;;;;5062911;28;20476;-73
2020/12/22 11:39:21;;;;;;;1.07;0.60;;;11.40;99.90;;;;;;5063284;28;20770;-73
2020/12/22 11:41:47;;;;;;;0.77;0.70;;;;;;;;;;5056619;28;20397;-73
2020/12/22 11:44:13;;;;;;;0.70;0.60;;;;;;;;;;5064455;28;20372;-73
2020/12/22 11:46:42;;;;;;;0.80;0.70;;;;;;;;;;5064367;28;20902;-73
2020/12/22 11:49:07;;;;;;;1.92;0.98;;;11.40;99.90;;;;;;5050458;28;20387;-73
2020/12/22 11:51:33;;;;;;;1.40;0.90;;;;;;;;;;5062868;28;20401;-73
2020/12/22 11:53:59;;;;;;;1.75;0.90;;;10.80;99.90;;;;;;5063345;28;20378;-73
2020/12/22 11:56:25;;;;;;;1.20;0.70;;;;;;;;;;5064104;28;20467;-73
2020/12/22 11:58:52;;;;;;;0.70;0.65;;;;;;;;;;5062424;28;20438;-72
2020/12/22 12:01:25;;;;;;;0.77;0.70;;;11.80;99.90;;;;;;5064359;28;20385;-73
2020/12/22 12:03:51;;;;;;;1.80;0.52;;;11.70;99.90;;;;;;5068079;28;20869;-73
2020/12/22 12:06:17;;;;;;;1.10;0.70;;;;;;;;;;5060727;28;20450;-73
2020/12/22 12:08:42;;;;;;;0.95;0.75;;;11.50;99.90;;;;;;5066040;28;20414;-73
2020/12/22 12:11:08;;;;;;;0.80;0.80;;;11.80;99.90;;;;;;5063499;28;20401;-73
2020/12/22 12:13:34;;;;;;;0.70;0.70;;;11.70;99.90;;;;;;5064961;28;20762;-73
2020/12/22 12:16:00;;;;;;;0.90;0.60;;;;;;;;;;5063207;28;20403;-73
2020/12/22 12:18:25;;;;;;;2.60;1.38;;;11.80;99.90;;;;;;5063991;28;20983;-73
2020/12/22 12:20:51;;;;;;;2.42;1.00;;;11.40;99.90;;;;;;5062035;28;20385;-73
2020/12/22 12:23:16;;;;;;;0.73;0.65;;;11.70;99.90;;;;;;5063643;28;20524;-73
2020/12/22 12:25:42;;;;;;;2.15;0.88;;;11.70;99.90;;;;;;5063708;28;20880;-73
2020/12/22 12:28:07;;;;;;;1.80;1.10;;;11.90;99.90;;;;;;5063736;28;20734;-71
2020/12/22 12:30:33;;;;;;;1.10;0.80;;;11.80;99.90;;;;;;5063772;28;20424;-73
2020/12/22 12:32:59;;;;;;;1.42;1.10;;;11.90;99.90;;;;;;5051933;28;20381;-73
2020/12/22 12:35:26;;;;;;;0.95;0.80;;;;;;;;;;5051980;28;20427;-73
2020/12/22 12:37:52;;;;;;;1.50;0.90;;;11.90;99.90;;;;;;5051967;28;20377;-72
2020/12/22 12:40:18;;;;;;;1.08;0.98;;;12.00;99.90;;;;;;5051997;28;20409;-72
2020/12/22 12:42:44;;;;;;;1.40;0.70;;;;;;;;;;5051752;28;20472;-72
2020/12/22 12:45:13;;;;;;;1.00;0.80;;;11.70;99.90;;;;;;5051952;28;20439;-72
2020/12/22 12:47:39;;;;;;;1.50;0.80;;;;;;;;;;5051931;28;20460;-72
2020/12/22 12:50:05;;;;;;;1.00;0.80;;;12.20;99.90;;;;;;5051801;28;20381;-73
2020/12/22 12:52:31;;;;;;;2.63;0.70;;;11.60;99.90;;;;;;5051366;28;21356;-73
2020/12/22 12:54:57;;;;;;;1.93;0.80;;;11.80;99.90;;;;;;5069753;28;20420;-71
2020/12/22 12:57:23;;;;;;;1.00;0.70;;;11.60;99.90;;;;;;5071801;28;20488;-71
2020/12/22 12:59:48;;;;;;;1.30;0.80;;;11.80;99.90;;;;;;5071974;28;20383;-73
2020/12/22 13:02:15;;;;;;;0.82;0.68;;;;;;;;;;5071459;28;20380;-72
2020/12/22 13:04:41;;;;;;;0.80;0.80;;;;;;;;;;5070458;28;21019;-72
2020/12/22 13:07:07;;;;;;;0.85;0.80;;;12.00;99.90;;;;;;5069749;28;20380;-72
2020/12/22 13:09:32;;;;;;;0.80;0.80;;;11.90;99.90;;;;;;5070981;28;20392;-72